UUWW/VKO METAR and TAF weather

Enter ICAO airport designator
Station Type Date Time Source
UUWW METAR 2019/09/20 09:30 UTC NOAA

UUWW 200930Z 22004MPS 170V250 9999 SCT022 08/02 Q1012 R24/110070 NOSIG


Station Type Date Time Source
UUWW Decoded METAR 2019/09/20 09:30 UTC NOAA

Moscow / Vnukovo , Russia (UUWW) 55-39N 037-16E
Sep 20, 2019 - 05:30 AM EDT / 2019.09.20 0930 UTC
Wind: from the SW (220 degrees) at 9 MPH (8 KT) (direction variable):0
Visibility: greater than 7 mile(s):0
Sky conditions: partly cloudy
Temperature: 46 F (8 C)
Dew Point: 35 F (2 C)
Relative Humidity: 65%
Pressure (altimeter): 29.88 in. Hg (1012 hPa)
ob: UUWW 200930Z 22004MPS 170V250 9999 SCT022 08/02 Q1012 R24/110070 NOSIG
cycle: 9

Station Type Date Time Source
UUWW TAF 2019/09/20 09:21 UTC NOAA

TAF UUWW 200753Z 2009/2109 33003MPS 9999 BKN015 TX10/2012Z TN02/2103Z
TEMPO 2009/2016 -SHRA SCT025CB
BECMG 2018/2020 3100 BR FEW004 SCT011 PROB40
TEMPO 2020/2105 0300 FG BKN002
FM210700 28005MPS 9999 SCT020

Example: see airport list